Ashley, OH

10:57 PM EST on January 29, 2015 (GMT -0500)
Delaware Municipal | Change Station
CLOSE
Current Station
Airport
Location: Delaware,
Elevation: 945 ft
Nearby Weather Stations
Active Advisory: Special Statement

Elev 945 ft 40.28 °N, 83.11 °W | Updated 13 minutes ago

Overcast
Overcast
32 °F
Feels Like 22 °F
N
15
Wind Variable Wind from NW
Gusts 24 mph

Today
High -- | Low -- °F
--% Chance of Precip.
Yesterday
High -- | Low -- °F
Precip. -- in
7:44 AM 5:46 PM
Waxing Gibbous, 79% visible
Pressure 30.06 in
Visibility 7.0 miles
Clouds Mostly Cloudy 1100 ft
Overcast 1900 ft
Windchill 22 °F
Dew Point 30 °F
Humidity 93%
Rainfall 0.06 in
Snow Depth Not available.
UV 0 out of 12
Pollen .10 out of 12
Air Quality Not available.
Flu Activity Not available.
METAR KDLZ 300344Z AUTO 31013G21KT 7SM BKN011 OVC019 00/M01 A3006 RMK AO2

More Conditions Fewer Conditions

Pressure 30.06 in
Visibility 7.0 miles
Clouds Mostly Cloudy 1100 ft
Overcast 1900 ft
Windchill 22 °F
Dew Point 30 °F
Humidity 93%
Rainfall 0.06 in
Snow Depth Not available.
UV 0 out of 12
Pollen .10 out of 12
Air Quality Not available.
Flu Activity Not available.
METAR KDLZ 300344Z AUTO 31013G21KT 7SM BKN011 OVC019 00/M01 A3006 RMK AO2

More Conditions Fewer Conditions

10-Day Weather Forecast

Almanac

Astronomy

Jan. 29, 2015 Rise Set
Actual Time
Civil Twilight
Nautical Twilight
Astronomical Twilight
Moon
Length of Visible Light
Length of Day
Tomorrow will be .
, % of the Moon is Illuminated

Today's Extremes

State Highs State Lows

Community

WunderPhotos

Upload Photos

1,791,702 photos uploaded!

WunderBlogs® & News

Nearby

Air Quality

  Air Quality AQ Index Pollutant
Not available.

Snow Depth

Station Depth Elevation

Earthquake Activity

City Distance Mag. Time & Date
Minimum magnitude displayed is 2.5.

Coastal Water Temperatures

Place Temperature

Nearby Weather Stations